createdAt,value
2023-03-19T09:19:57.011Z,43.5114
2023-03-19T09:20:58.448Z,43.4864
2023-03-19T09:34:41.247Z,43.8234
2023-03-19T09:35:42.780Z,43.8659
2023-03-19T09:36:44.123Z,43.7850
2023-03-19T09:37:45.561Z,43.7328
2023-03-19T09:38:46.999Z,43.7848
2023-03-19T09:39:48.457Z,43.7159
2023-03-19T09:40:49.874Z,43.6419
2023-03-19T09:41:51.307Z,43.5231
2023-03-19T09:42:52.770Z,43.4280
2023-03-19T09:43:54.316Z,43.4303
2023-03-19T09:44:55.638Z,43.9160
2023-03-19T09:45:57.065Z,43.9486
2023-03-19T09:46:58.555Z,44.0522
2023-03-19T09:47:59.953Z,44.0183
2023-03-19T09:49:01.415Z,44.0306
2023-03-19T09:50:02.819Z,44.0621
2023-03-19T09:51:04.280Z,43.7761
2023-03-19T09:52:07.324Z,43.7390
2023-03-19T09:53:07.144Z,43.4012
2023-03-19T09:54:08.596Z,43.1533
2023-03-19T09:55:10.043Z,42.6095
2023-03-19T09:56:11.466Z,42.2461
2023-03-19T09:57:14.966Z,41.3870
2023-03-19T09:58:14.347Z,40.4634
2023-03-19T09:59:15.797Z,40.2191
2023-03-19T10:00:17.225Z,40.4874
2023-03-19T10:01:18.689Z,39.8477
2023-03-19T10:02:20.131Z,39.1294
2023-03-19T10:03:21.539Z,38.8917
2023-03-19T10:04:23.006Z,39.0451
2023-03-19T10:05:24.409Z,39.0883
2023-03-19T10:06:25.851Z,39.5550
2023-03-19T10:07:27.292Z,39.3442
2023-03-19T10:08:28.725Z,39.3100
2023-03-19T10:09:30.168Z,39.4922
2023-03-19T10:10:31.588Z,39.6522
2023-03-19T10:11:33.040Z,39.7943
2023-03-19T10:12:34.474Z,39.9529
2023-03-19T10:13:35.916Z,40.0227
2023-03-19T10:14:37.346Z,40.1107
2023-03-19T10:15:38.788Z,40.2719
2023-03-19T10:16:40.262Z,40.3752
2023-03-19T10:17:41.647Z,40.4608
2023-03-19T10:18:43.206Z,40.5223
2023-03-19T10:19:44.825Z,40.5291
2023-03-19T10:20:46.008Z,40.5798
2023-03-19T10:21:47.405Z,40.5922
2023-03-19T10:22:48.842Z,40.6366
2023-03-19T10:23:50.292Z,40.6975
2023-03-19T10:24:51.721Z,40.7877
2023-03-19T10:25:53.169Z,40.8133
2023-03-19T10:26:54.588Z,40.8276
2023-03-19T10:27:56.039Z,40.8118
2023-03-19T10:28:57.462Z,40.8432
2023-03-19T10:29:58.903Z,40.8762
2023-03-19T10:31:02.546Z,40.8854
2023-03-19T10:32:01.855Z,40.9020
2023-03-19T10:33:03.301Z,40.9518
2023-03-19T12:19:34.777Z,50.4476
2023-03-19T12:20:36.217Z,50.5467
2023-03-19T12:21:37.642Z,50.6482
2023-03-19T12:22:39.087Z,50.7587
2023-03-19T12:23:40.530Z,50.7256
2023-03-19T12:24:41.953Z,50.6055
2023-03-19T12:25:43.389Z,50.5943
2023-03-19T12:26:44.821Z,50.5701
2023-03-19T12:27:46.262Z,50.5584
2023-03-19T12:28:47.692Z,50.5529
2023-03-19T12:29:49.138Z,50.4497
2023-03-19T12:30:50.631Z,50.4557
2023-03-19T12:31:52.023Z,50.3397
2023-03-19T12:32:53.557Z,50.3030
2023-03-19T12:33:54.883Z,50.2747
2023-03-19T12:34:56.309Z,50.1486
2023-03-19T12:35:57.808Z,50.1060
2023-03-19T12:36:59.208Z,50.0887
2023-03-19T12:38:00.639Z,49.9192
2023-03-19T12:39:02.074Z,50.3593
2023-03-19T12:40:03.530Z,50.4155
2023-03-19T12:41:04.944Z,50.6080
2023-03-19T12:42:06.402Z,50.8844
2023-03-19T12:43:07.821Z,50.8927
2023-03-19T12:44:09.272Z,51.1334
2023-03-19T12:45:10.697Z,51.1523
2023-03-19T12:46:12.178Z,51.3669
2023-03-19T12:47:13.604Z,51.5208
2023-03-19T12:48:15.028Z,51.4536
2023-03-19T12:49:16.467Z,51.4278
2023-03-19T12:50:17.910Z,51.4292
2023-03-19T12:51:19.345Z,51.5218
2023-03-19T12:52:20.808Z,51.4964
2023-03-19T12:53:22.230Z,51.5865
2023-03-19T12:54:23.702Z,51.4503
2023-03-19T12:55:25.108Z,51.3092
2023-03-19T12:56:26.556Z,51.1932
2023-03-19T12:57:27.995Z,51.1306
2023-03-19T12:58:29.442Z,51.1246
2023-03-19T12:59:30.902Z,51.1118
2023-03-19T13:00:32.520Z,51.0928
2023-03-19T13:01:33.793Z,51.0728
2023-03-19T13:02:35.221Z,51.0851
2023-03-19T13:03:36.635Z,51.0842
2023-03-19T13:04:39.920Z,51.0609
2023-03-19T13:05:39.568Z,51.0638
2023-03-19T13:06:40.963Z,51.0567
2023-03-19T13:07:42.400Z,51.0653
2023-03-19T13:08:43.845Z,51.0800
2023-03-19T13:09:45.282Z,51.0245
2023-03-19T13:10:46.741Z,51.0533
2023-03-19T13:11:48.166Z,51.0667
2023-03-19T13:12:49.613Z,51.0655
2023-03-19T13:13:51.055Z,51.2013
2023-03-19T13:14:52.501Z,51.1533
2023-03-19T13:15:53.958Z,51.1057
2023-03-19T13:16:55.396Z,51.1134
2023-03-19T13:17:56.801Z,51.0874
2023-03-19T13:18:58.248Z,51.0824
2023-03-19T13:19:59.685Z,51.0683
2023-03-19T13:21:01.140Z,51.0705
2023-03-19T13:22:02.579Z,51.0647
2023-03-19T13:23:04.002Z,51.0988
2023-03-19T13:24:05.442Z,51.0888
2023-03-19T13:25:06.874Z,51.0606
2023-03-19T13:26:08.312Z,51.0350
2023-03-19T13:27:09.790Z,51.0440
2023-03-19T13:28:11.189Z,51.0664
2023-03-19T13:29:12.690Z,51.0426
2023-03-19T13:30:14.075Z,51.0110
2023-03-19T13:31:15.542Z,51.0250
2023-03-19T13:32:16.968Z,51.0401
2023-03-19T13:33:18.477Z,51.0497
2023-03-19T13:34:19.832Z,51.0196
2023-03-19T13:35:21.269Z,51.0450
2023-03-19T13:36:22.712Z,51.0817
2023-03-19T13:37:24.156Z,51.0927
2023-03-19T13:38:25.588Z,51.0926
2023-03-19T13:39:27.033Z,51.0851
2023-03-19T13:40:28.496Z,51.1391
2023-03-19T13:41:29.910Z,51.1262
2023-03-19T13:42:31.350Z,51.1511
2023-03-19T13:43:32.792Z,51.1329
2023-03-19T13:44:34.242Z,51.1659
2023-03-19T13:45:35.676Z,51.1478
2023-03-19T13:46:37.141Z,51.1909
2023-03-19T13:47:38.557Z,51.1614
2023-03-19T13:48:39.995Z,51.1403
2023-03-19T13:49:41.442Z,51.1548
2023-03-19T13:50:42.993Z,51.2202
2023-03-19T13:51:44.317Z,51.1636
2023-03-19T13:52:45.770Z,51.1287
2023-03-19T13:53:47.203Z,51.1870
2023-03-19T13:54:48.650Z,51.2528
2023-03-19T13:55:50.086Z,51.1837
2023-03-19T13:56:51.521Z,51.2497
2023-03-19T13:57:52.973Z,51.2469
2023-03-19T13:58:54.390Z,51.3315
2023-03-19T13:59:55.852Z,51.3512
2023-03-19T14:00:57.340Z,51.3589
2023-03-19T14:01:58.729Z,51.4839
2023-03-19T14:03:00.157Z,51.5068
2023-03-19T14:04:01.602Z,51.4822
2023-03-19T14:05:03.049Z,50.9916
2023-03-19T14:06:04.498Z,51.0916
2023-03-19T14:07:05.917Z,51.1707
2023-03-19T14:08:07.370Z,51.2600
2023-03-19T14:09:08.803Z,51.3751
2023-03-19T14:10:10.238Z,51.2880
2023-03-19T14:11:11.673Z,51.2098
2023-03-19T14:12:13.118Z,51.2074
2023-03-19T14:13:14.570Z,51.1812
2023-03-19T14:14:15.996Z,51.0546
2023-03-19T14:15:18.086Z,50.9421
2023-03-19T14:16:18.912Z,50.9299
2023-03-19T14:17:20.310Z,50.9097
2023-03-19T14:18:21.758Z,50.8984
2023-03-19T14:19:23.180Z,50.8845
2023-03-19T14:20:32.096Z,50.8684
2023-03-19T14:21:26.177Z,50.8867
2023-03-19T14:22:27.504Z,50.9239
2023-03-19T14:23:39.444Z,51.0674
2023-03-19T14:25:00.038Z,51.6703
2023-03-19T14:25:31.807Z,51.7895
2023-03-19T14:26:33.252Z,51.8176
2023-03-19T14:27:34.679Z,51.6547
2023-03-19T14:28:36.142Z,51.5098
2023-03-19T14:29:37.632Z,51.4533
2023-03-19T14:30:39.010Z,51.4523
2023-03-19T14:31:40.473Z,51.4004
2023-03-19T14:32:41.908Z,51.3945
2023-03-19T14:33:43.421Z,51.3063
2023-03-19T14:34:44.742Z,51.2998
2023-03-19T14:35:46.192Z,51.4598
2023-03-19T14:36:47.617Z,51.4938
2023-03-19T14:37:49.181Z,51.4904
2023-03-19T14:38:50.504Z,51.5757
2023-03-19T14:39:51.927Z,51.6913
2023-03-19T14:40:53.384Z,51.9097
2023-03-19T14:41:54.826Z,51.9962
2023-03-19T14:42:56.243Z,52.1290
2023-03-19T14:43:57.715Z,52.2483
2023-03-19T14:44:59.122Z,52.1819
2023-03-19T14:46:00.654Z,52.4431
2023-03-19T14:47:02.006Z,52.3464
2023-03-19T14:48:03.451Z,52.4542
2023-03-19T14:49:04.855Z,52.5069
2023-03-19T14:50:06.364Z,52.4302
2023-03-19T14:51:07.741Z,52.6106
2023-03-19T14:52:09.173Z,52.6916
2023-03-19T14:53:10.603Z,52.8317
2023-03-19T14:54:12.039Z,52.8593
2023-03-19T14:55:13.474Z,52.9673
2023-03-19T14:56:14.923Z,52.9342
2023-03-19T14:57:16.360Z,53.0268
2023-03-19T14:58:17.792Z,53.2635
2023-03-19T14:59:19.219Z,53.3640
2023-03-19T15:00:20.683Z,53.5382
2023-03-19T15:01:22.154Z,53.5730
2023-03-19T15:02:23.536Z,53.4655
2023-03-19T15:03:24.964Z,53.4070
2023-03-19T15:04:26.466Z,53.6353
2023-03-19T15:05:27.838Z,53.6752
2023-03-19T15:06:29.270Z,53.5711
2023-03-19T15:07:30.738Z,53.6664
2023-03-19T15:08:32.154Z,53.7492
2023-03-19T15:09:33.598Z,53.8982
2023-03-19T15:10:35.027Z,53.9217
2023-03-19T15:11:36.453Z,53.7354
2023-03-19T15:12:37.901Z,53.8189
2023-03-19T15:13:39.340Z,53.8778
2023-03-19T15:14:40.787Z,53.9437
2023-03-19T15:15:42.210Z,54.1437
2023-03-19T15:16:43.695Z,54.1336
2023-03-19T15:17:49.199Z,54.0317
2023-03-19T15:18:46.522Z,54.1576
2023-03-19T15:19:47.962Z,54.1823
2023-03-19T15:20:49.401Z,54.2347
2023-03-19T15:21:50.827Z,54.2724
2023-03-19T15:22:52.300Z,54.3290
2023-03-19T15:23:53.713Z,54.3133
2023-03-19T15:24:55.141Z,54.2479
2023-03-19T15:25:56.603Z,54.4507
2023-03-19T15:26:58.022Z,54.4286
2023-03-19T15:27:59.456Z,54.4987
2023-03-19T15:29:00.968Z,54.4152
2023-03-19T15:30:13.609Z,54.3594
2023-03-19T15:31:21.793Z,54.5327
2023-03-19T15:32:09.951Z,54.6387
2023-03-19T15:33:16.864Z,54.5716
2023-03-19T15:34:08.189Z,54.5044
2023-03-19T15:35:09.624Z,54.7057
2023-03-19T15:36:11.033Z,54.5800
2023-03-19T15:37:12.418Z,54.7258
2023-03-19T15:38:13.861Z,54.8046
2023-03-19T15:39:15.450Z,54.7502
2023-03-19T15:40:16.748Z,54.8170
2023-03-19T15:41:18.181Z,54.7541
2023-03-19T15:42:19.634Z,54.7246
2023-03-19T15:43:21.067Z,54.8186
2023-03-19T15:44:22.482Z,54.7022
2023-03-19T15:45:23.930Z,54.8881
2023-03-19T15:46:25.402Z,54.8401
2023-03-19T15:47:26.808Z,54.7527
2023-03-19T15:48:28.253Z,54.7881
2023-03-19T15:49:29.686Z,54.8486
2023-03-19T15:50:31.114Z,54.9695
2023-03-19T15:51:32.568Z,54.9894
2023-03-19T15:52:33.986Z,54.8646
2023-03-19T15:53:35.424Z,55.0837
2023-03-19T15:54:36.871Z,55.0027
2023-03-19T15:55:38.416Z,55.3086
2023-03-19T15:56:39.764Z,55.6890
2023-03-19T15:57:41.179Z,55.3594
2023-03-19T15:58:42.626Z,55.3108
2023-03-19T15:59:44.055Z,55.4472
2023-03-19T16:00:45.495Z,55.2780
2023-03-19T16:01:47.024Z,50.0355
2023-03-19T16:02:48.424Z,46.8391
2023-03-19T16:03:49.801Z,49.2583
2023-03-19T16:05:18.100Z,53.2593
2023-03-19T16:05:52.703Z,57.9296
2023-03-19T16:06:54.121Z,58.3455
2023-03-19T16:07:55.566Z,57.5173
2023-03-19T16:08:57.088Z,56.3629
2023-03-19T16:09:58.442Z,54.7665
2023-03-19T16:10:59.873Z,53.9592
2023-03-19T16:12:01.418Z,53.1229
2023-03-19T16:13:02.761Z,52.9605
2023-03-19T16:14:04.233Z,52.9459
2023-03-19T16:15:05.657Z,52.5088
2023-03-19T16:16:07.114Z,52.3916
2023-03-19T16:17:08.508Z,52.4879
2023-03-19T16:18:09.974Z,52.6321
2023-03-19T16:19:11.393Z,52.7358
2023-03-19T16:20:12.960Z,52.7605
2023-03-19T16:21:14.352Z,52.6647
2023-03-19T16:22:15.785Z,52.7466
2023-03-19T16:23:17.229Z,52.5320
2023-03-19T16:24:18.666Z,52.3130
2023-03-19T16:25:20.215Z,52.3510
2023-03-19T16:26:21.552Z,52.4197
2023-03-19T16:27:23.006Z,52.4691
2023-03-19T16:28:24.432Z,52.4135
2023-03-19T16:29:25.894Z,52.5219
2023-03-19T16:30:27.319Z,52.3816
2023-03-19T16:31:28.802Z,52.2532
2023-03-19T16:32:30.177Z,52.0814
2023-03-19T16:33:31.596Z,51.9887
2023-03-19T16:34:33.044Z,51.8865
2023-03-19T16:35:34.552Z,51.8051
2023-03-19T16:36:35.933Z,51.7680
2023-03-19T16:37:37.407Z,51.7331
2023-03-19T16:38:38.803Z,51.7774
2023-03-19T16:39:40.220Z,51.8456
2023-03-19T16:40:41.687Z,51.9003
2023-03-19T16:41:43.114Z,51.9091
2023-03-19T16:42:44.569Z,51.8781
2023-03-19T16:43:46.003Z,51.8193
2023-03-19T16:44:47.467Z,51.7469
2023-03-19T16:45:48.875Z,51.7259
2023-03-19T16:46:50.337Z,51.7642
2023-03-19T16:47:51.756Z,51.8334
2023-03-19T16:48:53.187Z,51.7796
2023-03-19T16:49:54.619Z,51.8118
2023-03-19T16:50:56.102Z,51.9287
2023-03-19T16:51:57.514Z,52.1297
2023-03-19T16:52:58.952Z,52.1409
2023-03-19T16:54:00.400Z,52.1909
2023-03-19T16:55:01.836Z,52.3708
2023-03-19T16:56:03.296Z,52.3466
2023-03-19T16:57:04.714Z,52.4288
2023-03-19T16:58:06.158Z,52.5101
2023-03-19T16:59:07.593Z,52.7016
2023-03-19T17:00:09.033Z,52.5549
2023-03-19T17:01:10.503Z,52.6926
2023-03-19T17:02:11.925Z,52.6804
2023-03-19T17:03:13.356Z,52.6267
2023-03-19T17:04:14.846Z,52.7850
2023-03-19T17:05:16.245Z,52.6126
2023-03-19T17:06:17.717Z,52.6570
2023-03-19T17:07:19.144Z,53.1137
2023-03-19T17:08:20.563Z,53.1638
2023-03-19T17:09:22.025Z,53.0782
2023-03-19T17:10:23.495Z,52.8558
2023-03-19T17:11:24.900Z,53.0458
2023-03-19T17:12:26.332Z,52.8256
2023-03-19T17:13:27.788Z,53.0774
2023-03-19T17:14:29.222Z,53.1715
2023-03-19T17:15:30.669Z,53.2148
2023-03-19T17:16:32.172Z,53.1581
2023-03-19T17:17:33.536Z,53.2502
2023-03-19T17:18:34.968Z,53.2707
2023-03-19T17:19:36.434Z,53.4505
2023-03-19T17:20:37.855Z,53.5047
2023-03-19T17:21:39.296Z,53.4217
2023-03-19T17:22:40.733Z,53.3354
2023-03-19T17:23:42.173Z,53.3630
2023-03-19T17:24:43.630Z,53.5669
2023-03-19T17:25:45.095Z,53.6031
2023-03-19T17:26:46.620Z,53.5932
2023-03-19T17:27:47.963Z,53.4897
2023-03-19T17:28:49.377Z,53.1931
2023-03-19T17:29:50.833Z,52.9293
2023-03-19T17:30:52.259Z,52.7982
2023-03-19T17:31:53.748Z,52.6703
2023-03-19T17:32:55.373Z,52.7461
2023-03-19T17:33:56.568Z,52.6018
2023-03-19T17:34:58.012Z,52.4937
2023-03-19T17:35:59.478Z,52.4465
2023-03-19T17:37:00.876Z,52.3791
2023-03-19T17:38:02.325Z,52.2937
2023-03-19T17:39:03.754Z,52.2411
2023-03-19T17:40:05.254Z,52.1954
2023-03-19T17:41:06.657Z,52.1578
2023-03-19T17:42:08.068Z,52.1264
2023-03-19T17:43:09.515Z,52.1154
2023-03-19T17:44:10.944Z,52.0892
2023-03-19T17:45:12.375Z,52.0747
2023-03-19T17:46:13.830Z,52.0581
2023-03-19T17:47:15.257Z,52.0689
2023-03-19T17:48:16.691Z,52.2091
2023-03-19T17:49:18.126Z,52.2011
2023-03-19T17:50:19.570Z,52.1945
2023-03-19T17:51:21.011Z,52.1573
2023-03-19T17:52:22.448Z,52.1180
2023-03-19T17:53:23.883Z,52.0817
2023-03-19T17:54:25.315Z,52.0576
2023-03-19T17:55:26.759Z,52.0338
2023-03-19T17:56:28.198Z,52.0204
2023-03-19T17:57:29.624Z,52.0067
2023-03-19T17:58:31.071Z,51.9963
2023-03-19T17:59:32.505Z,51.9746
2023-03-19T18:00:34.439Z,51.9528
2023-03-19T18:01:35.388Z,51.9400
2023-03-19T18:02:36.869Z,51.9270
2023-03-19T18:03:38.255Z,51.9215
2023-03-19T18:04:39.760Z,51.9049
2023-03-19T18:05:41.152Z,51.9109
2023-03-19T18:06:42.599Z,51.8951
2023-03-19T18:07:44.010Z,51.8874
2023-03-19T18:08:45.456Z,51.8839
2023-03-19T18:09:46.890Z,51.8705
2023-03-19T18:10:48.338Z,51.8592
2023-03-19T18:11:49.777Z,51.8876
2023-03-19T18:12:51.214Z,51.9112
2023-03-19T18:13:52.635Z,51.8994
2023-03-19T18:14:54.088Z,51.8785
2023-03-19T18:15:55.570Z,51.9114
2023-03-19T18:16:56.943Z,51.9326
2023-03-19T18:17:58.374Z,51.9368
2023-03-19T18:18:59.819Z,51.9695
2023-03-19T18:20:01.253Z,52.0251
2023-03-19T18:21:02.712Z,52.0021
2023-03-19T18:22:04.124Z,52.0805
2023-03-19T18:23:05.584Z,52.1360
2023-03-19T18:24:07.001Z,52.2000
2023-03-19T18:25:08.438Z,52.1427
2023-03-19T18:26:09.895Z,52.1689
2023-03-19T18:27:11.322Z,52.2818
2023-03-19T18:28:12.775Z,52.2395
2023-03-19T18:29:14.208Z,52.2694
2023-03-19T18:30:15.639Z,52.3335
2023-03-19T18:31:17.243Z,52.4715
2023-03-19T18:32:18.528Z,52.3909
2023-03-19T18:33:20.120Z,52.3312
2023-03-19T18:34:21.391Z,52.3484
2023-03-19T18:35:22.856Z,52.3942
2023-03-19T18:36:24.674Z,52.3594
2023-03-19T18:37:25.713Z,52.3654
2023-03-19T18:38:27.147Z,52.3528
2023-03-19T18:39:28.586Z,52.5252
2023-03-19T18:40:30.020Z,52.5364
2023-03-19T18:41:31.500Z,52.6985
2023-03-19T18:42:32.888Z,52.7283
2023-03-19T18:43:34.331Z,52.8640
2023-03-19T18:44:35.785Z,52.8686
2023-03-19T18:45:37.257Z,52.7773
2023-03-19T18:46:38.675Z,52.7293
2023-03-19T18:47:40.095Z,52.8694
2023-03-19T18:48:41.528Z,53.0543
2023-03-19T18:49:42.980Z,52.9003
2023-03-19T18:50:44.428Z,53.0051
2023-03-19T18:52:00.968Z,53.2372
2023-03-19T18:52:47.296Z,53.3772
2023-03-19T18:53:48.729Z,53.1979
2023-03-19T18:54:50.167Z,53.2554
2023-03-19T18:55:51.603Z,53.4273
2023-03-19T18:56:53.038Z,53.6947
2023-03-19T18:57:54.475Z,53.6782
2023-03-19T18:58:55.915Z,53.5667
2023-03-19T18:59:57.374Z,53.5185
2023-03-19T19:00:58.842Z,53.4799
2023-03-19T19:02:00.247Z,53.8647
2023-03-19T19:03:01.669Z,53.7764
2023-03-19T19:04:03.128Z,53.6411
2023-03-19T19:05:04.556Z,53.9622
2023-03-19T19:06:05.988Z,54.2336
2023-03-19T19:07:07.438Z,54.1570
2023-03-19T19:08:08.868Z,53.8997
2023-03-19T19:09:10.307Z,53.9635
2023-03-19T19:10:11.740Z,53.9169
2023-03-19T19:11:13.191Z,54.3568
2023-03-19T19:12:14.665Z,54.2429
2023-03-19T19:13:16.053Z,54.2049
2023-03-19T19:14:17.489Z,54.1040
2023-03-19T19:15:18.936Z,54.2114
2023-03-19T19:16:20.472Z,54.2870
2023-03-19T19:17:21.800Z,54.2158
2023-03-19T19:18:23.261Z,54.3019
2023-03-19T19:19:24.694Z,54.3301
2023-03-19T19:20:26.116Z,54.2752
2023-03-19T19:21:27.574Z,54.3325
2023-03-19T19:22:28.984Z,54.3470
2023-03-19T19:23:30.429Z,54.3760
2023-03-19T19:24:31.866Z,54.3999
2023-03-19T19:25:33.303Z,54.3851
2023-03-19T19:26:34.741Z,54.4051
2023-03-19T19:27:36.171Z,54.4471
2023-03-19T19:28:39.973Z,54.4521
2023-03-19T19:29:39.051Z,54.4287
2023-03-19T19:30:40.536Z,54.4454
2023-03-19T19:31:41.934Z,54.4518
2023-03-19T19:32:43.353Z,54.5024
2023-03-19T19:33:44.790Z,54.3652
2023-03-19T19:34:46.225Z,54.4681
2023-03-19T19:35:47.706Z,54.4922
2023-03-19T19:36:49.106Z,54.5328
2023-03-19T19:37:50.533Z,54.6140
2023-03-19T19:38:51.962Z,54.6571
2023-03-19T19:39:53.413Z,54.7284
2023-03-19T19:40:54.869Z,54.8364
2023-03-19T19:41:56.286Z,55.0106
2023-03-19T19:42:57.721Z,54.8977
2023-03-19T19:43:59.181Z,54.9198
2023-03-19T19:45:00.613Z,54.9806
2023-03-19T19:46:02.061Z,54.8623
2023-03-19T19:47:03.477Z,54.9663
2023-03-19T19:48:04.907Z,54.8676
2023-03-19T19:49:06.342Z,54.8981
2023-03-19T19:50:07.792Z,54.8536
2023-03-19T19:51:09.222Z,54.9787
2023-03-19T19:52:10.662Z,54.9728
2023-03-19T19:53:12.107Z,54.9221
2023-03-19T19:54:13.524Z,54.9700
2023-03-19T19:55:14.958Z,54.9190
2023-03-19T19:56:16.434Z,54.9556
2023-03-19T19:57:17.834Z,54.9628
2023-03-19T19:58:19.285Z,54.9680
2023-03-19T19:59:20.722Z,55.0391
2023-03-19T20:00:22.151Z,55.0667
2023-03-19T20:01:23.647Z,55.0422
2023-03-19T20:02:25.029Z,55.0726
2023-03-19T20:03:26.468Z,55.0765
2023-03-19T20:04:30.458Z,55.0581
2023-03-19T20:05:29.336Z,55.0940
2023-03-19T20:06:30.775Z,55.0813
2023-03-19T20:07:32.205Z,55.0920
2023-03-19T20:08:33.664Z,55.1144
2023-03-19T20:09:35.077Z,55.1589
2023-03-19T20:10:36.521Z,55.1876
2023-03-19T20:11:37.958Z,55.1973
2023-03-19T20:12:39.400Z,55.2274
2023-03-19T20:13:40.843Z,55.2706
2023-03-19T20:14:42.281Z,55.3406
2023-03-19T20:15:43.755Z,55.3282
2023-03-19T20:16:45.174Z,55.2748
2023-03-19T20:17:46.580Z,55.2199
2023-03-19T20:18:48.028Z,55.2891
2023-03-19T20:19:49.458Z,55.3277
2023-03-19T20:20:50.899Z,55.3996
2023-03-19T20:21:52.342Z,55.4730
2023-03-19T20:22:53.838Z,55.4399
2023-03-19T20:23:55.514Z,55.5108
2023-03-19T20:24:56.730Z,55.5146
2023-03-19T20:25:58.173Z,55.5185
2023-03-19T20:26:59.605Z,55.5160
2023-03-19T20:28:01.044Z,55.6235
2023-03-19T20:29:02.472Z,55.4868
2023-03-19T20:30:03.917Z,55.3003
2023-03-19T20:31:05.444Z,55.7195
2023-03-19T20:32:06.791Z,55.7668
2023-03-19T20:33:08.294Z,55.7169
2023-03-19T20:34:09.665Z,55.7999
2023-03-19T20:35:11.114Z,55.9268
2023-03-19T20:36:12.550Z,56.0426
2023-03-19T20:37:13.994Z,56.0737
2023-03-19T20:38:15.442Z,56.0683
2023-03-19T20:39:16.891Z,56.0306
2023-03-19T20:40:18.318Z,56.0539
2023-03-19T20:41:19.772Z,55.9756
2023-03-19T20:42:21.196Z,55.9387
2023-03-19T20:43:22.635Z,55.9805
2023-03-19T20:44:24.062Z,56.0473
2023-03-19T20:45:25.509Z,56.0574
2023-03-19T20:46:26.992Z,56.0583
2023-03-19T20:47:28.385Z,56.0420
2023-03-19T20:48:29.814Z,55.9551
2023-03-19T20:49:31.267Z,56.0546
2023-03-19T20:50:32.773Z,56.0339
2023-03-19T20:51:34.149Z,56.0591
2023-03-19T20:52:35.574Z,56.0868
2023-03-19T20:53:37.035Z,56.1015
2023-03-19T20:54:38.453Z,56.1437
2023-03-19T20:55:39.895Z,56.1358
2023-03-19T20:56:41.332Z,56.1104
2023-03-19T20:57:42.774Z,56.1308
2023-03-19T20:58:44.240Z,56.1060
2023-03-19T20:59:45.648Z,56.1304
2023-03-19T21:00:47.075Z,56.1087
2023-03-19T21:01:48.820Z,56.1494
2023-03-19T21:02:50.077Z,56.1561
2023-03-19T21:03:51.453Z,56.1282
2023-03-19T21:04:52.834Z,56.1966
2023-03-19T21:05:54.294Z,56.1851
2023-03-19T21:06:55.714Z,56.2268
2023-03-19T21:07:57.166Z,56.1779
2023-03-19T21:08:58.628Z,56.2294
2023-03-19T21:10:00.055Z,56.2371
2023-03-19T21:11:01.464Z,56.1433
2023-03-19T21:12:02.925Z,56.2189
2023-03-19T21:13:04.354Z,56.2549
2023-03-19T21:14:05.799Z,56.2450
2023-03-19T21:15:07.216Z,56.2468
2023-03-19T21:16:08.699Z,56.3302
2023-03-19T21:17:10.095Z,56.3223
2023-03-19T21:18:11.558Z,56.3336
2023-03-19T21:19:12.963Z,56.3120
2023-03-19T21:20:14.411Z,56.2661
2023-03-19T21:21:15.831Z,56.3266
2023-03-19T21:22:17.397Z,56.3879
2023-03-19T21:23:18.720Z,56.3583
2023-03-19T21:24:20.155Z,56.3906
2023-03-19T21:25:21.590Z,56.3571
2023-03-19T21:26:23.033Z,56.1556
2023-03-19T21:27:24.461Z,56.2646
2023-03-19T21:28:25.904Z,56.2910
2023-03-19T21:29:27.341Z,56.2870
2023-03-19T21:30:28.808Z,56.3227
2023-03-19T21:31:30.359Z,56.3239
2023-03-19T21:32:31.719Z,56.3203
2023-03-19T21:33:33.107Z,56.3500
2023-03-19T21:34:34.551Z,56.3351
2023-03-19T21:35:36.399Z,56.4105
2023-03-19T21:36:37.402Z,56.4045
2023-03-19T21:37:38.845Z,56.4430
2023-03-19T21:38:40.285Z,56.4029
2023-03-19T21:39:41.717Z,56.4198
2023-03-19T21:40:43.161Z,56.4767
2023-03-19T21:41:44.593Z,56.4979
2023-03-19T21:42:46.044Z,56.4771
2023-03-19T21:43:47.474Z,56.4451
2023-03-19T21:44:48.917Z,56.7648
2023-03-19T21:45:50.375Z,56.6563
2023-03-19T21:46:51.857Z,56.4580
2023-03-19T21:47:53.228Z,56.5572
2023-03-19T21:48:54.692Z,56.5148
2023-03-19T21:49:56.125Z,56.4600
2023-03-19T21:50:57.565Z,56.6569
2023-03-19T21:51:58.997Z,56.6096
2023-03-19T21:53:01.565Z,56.6467
2023-03-19T21:54:01.853Z,56.5486
2023-03-19T21:55:03.304Z,56.7124
2023-03-19T21:56:04.745Z,56.7798
2023-03-19T21:57:06.176Z,56.7257
2023-03-19T21:58:07.615Z,56.6904
2023-03-19T21:59:09.102Z,56.8490
2023-03-19T22:00:10.487Z,56.7780
2023-03-19T22:01:11.953Z,56.8173
2023-03-19T22:02:13.366Z,56.7982
2023-03-19T22:03:14.817Z,56.9198
2023-03-19T22:04:16.338Z,56.7682
2023-03-19T22:05:17.712Z,56.9706
2023-03-19T22:06:19.143Z,56.9772
2023-03-19T22:07:20.575Z,56.9331
2023-03-19T22:08:22.029Z,56.9978
2023-03-19T22:09:23.456Z,56.8548
2023-03-19T22:10:24.892Z,57.0280
2023-03-19T22:11:26.351Z,56.9260
2023-03-19T22:12:27.797Z,57.0174
2023-03-19T22:13:29.217Z,57.0193
2023-03-19T22:14:30.669Z,57.0523
2023-03-19T22:15:32.174Z,57.0732
2023-03-19T22:16:33.568Z,57.0878
2023-03-19T22:17:34.979Z,57.0504
2023-03-19T22:18:36.411Z,57.0873
2023-03-19T22:19:37.891Z,57.1592
2023-03-19T22:20:39.296Z,57.0319
2023-03-19T22:21:40.760Z,57.1697
2023-03-19T22:22:42.185Z,57.2056
2023-03-19T22:23:43.628Z,57.1689
2023-03-19T22:24:45.068Z,57.2517
2023-03-19T22:25:46.515Z,57.2360
2023-03-19T22:26:47.947Z,57.2571
2023-03-19T22:27:49.399Z,57.1582
2023-03-19T22:28:50.833Z,57.2733
2023-03-19T22:29:52.278Z,57.1009
2023-03-19T22:30:53.705Z,57.2612
2023-03-19T22:31:55.214Z,57.3653
2023-03-19T22:32:56.619Z,57.4045
2023-03-19T22:33:58.041Z,57.3575
2023-03-19T22:34:59.475Z,57.4775
2023-03-19T22:36:00.990Z,57.3617
2023-03-19T22:37:02.361Z,57.1519
2023-03-19T22:38:03.805Z,56.9689
2023-03-19T22:39:05.240Z,56.7497
2023-03-19T22:40:06.694Z,56.6146
2023-03-19T22:41:08.126Z,56.4815
2023-03-19T22:42:09.583Z,56.3227
2023-03-19T22:43:11.009Z,56.1853
2023-03-19T22:44:12.453Z,56.0627
2023-03-19T22:45:13.888Z,56.0112
2023-03-19T22:46:15.424Z,55.8978
2023-03-19T22:47:16.785Z,55.7548
2023-03-19T22:48:18.228Z,55.7212
2023-03-19T22:49:19.673Z,55.6532
2023-03-19T22:50:21.102Z,55.5676
2023-03-19T22:51:22.609Z,55.5268
2023-03-19T22:52:23.994Z,55.5339
2023-03-19T22:53:25.427Z,55.3601
2023-03-19T22:54:26.872Z,55.3085
2023-03-19T22:55:28.311Z,55.5681
2023-03-19T22:56:29.754Z,55.5857
2023-03-19T22:57:31.226Z,55.5709
2023-03-19T22:58:32.642Z,55.7089
2023-03-19T22:59:34.079Z,55.7701
2023-03-19T23:00:35.519Z,55.7255
2023-03-19T23:01:36.972Z,55.6710
2023-03-19T23:02:38.425Z,55.7029
2023-03-19T23:03:39.832Z,55.7342
2023-03-19T23:04:41.390Z,55.8250
2023-03-19T23:05:42.713Z,55.8674
2023-03-19T23:06:44.156Z,56.0193
2023-03-19T23:07:45.599Z,55.9092
2023-03-19T23:08:47.041Z,55.9929
2023-03-19T23:09:48.482Z,56.1115
2023-03-19T23:10:49.930Z,56.1060
2023-03-19T23:11:51.354Z,56.1019
2023-03-19T23:12:52.806Z,56.0501
2023-03-19T23:13:56.571Z,55.9845
2023-03-19T23:14:55.685Z,56.0684
2023-03-19T23:15:57.138Z,56.2274
2023-03-19T23:16:59.588Z,56.2161
2023-03-19T23:18:00.006Z,56.1204
2023-03-19T23:19:01.449Z,56.1701
2023-03-19T23:20:02.888Z,56.2478
2023-03-19T23:21:04.329Z,56.3634
2023-03-19T23:22:05.812Z,56.4181
2023-03-19T23:23:07.209Z,56.4473
2023-03-19T23:24:08.664Z,56.4300
2023-03-19T23:25:10.129Z,56.2960
2023-03-19T23:26:11.580Z,56.3030
2023-03-19T23:27:12.977Z,56.2738
2023-03-19T23:28:14.414Z,56.4292
2023-03-19T23:29:15.883Z,56.4833
2023-03-19T23:30:17.302Z,56.4776
2023-03-19T23:31:18.758Z,56.4652
2023-03-19T23:32:20.178Z,56.5616
2023-03-19T23:33:21.626Z,56.5739
2023-03-19T23:34:23.071Z,56.6553
2023-03-19T23:35:24.505Z,56.7540
2023-03-19T23:36:25.943Z,56.7223
2023-03-19T23:37:27.399Z,56.7446
2023-03-19T23:38:28.827Z,56.7603
2023-03-19T23:39:30.268Z,56.8191
2023-03-19T23:40:31.704Z,56.8883